sensor_id;sensor_type;location;lat;lon;timestamp;temperature;humidity
8957;DHT22;4513;50.054;8.230;2023-06-22T00:00:48;23.50;98.70
8957;DHT22;4513;50.054;8.230;2023-06-22T00:03:15;23.40;99.20
8957;DHT22;4513;50.054;8.230;2023-06-22T00:05:41;23.50;99.10
8957;DHT22;4513;50.054;8.230;2023-06-22T00:08:08;23.40;99.30
8957;DHT22;4513;50.054;8.230;2023-06-22T00:10:35;23.40;99.20
8957;DHT22;4513;50.054;8.230;2023-06-22T00:13:02;23.40;99.50
8957;DHT22;4513;50.054;8.230;2023-06-22T00:15:31;23.40;99.70
8957;DHT22;4513;50.054;8.230;2023-06-22T00:17:57;23.40;99.50
8957;DHT22;4513;50.054;8.230;2023-06-22T00:20:24;23.30;99.70
8957;DHT22;4513;50.054;8.230;2023-06-22T00:22:53;23.30;99.50
8957;DHT22;4513;50.054;8.230;2023-06-22T00:25:20;23.30;99.50
8957;DHT22;4513;50.054;8.230;2023-06-22T00:27:47;23.30;99.80
8957;DHT22;4513;50.054;8.230;2023-06-22T00:30:14;23.30;99.90
8957;DHT22;4513;50.054;8.230;2023-06-22T00:32:43;23.30;99.90
8957;DHT22;4513;50.054;8.230;2023-06-22T00:35:11;23.30;99.90
8957;DHT22;4513;50.054;8.230;2023-06-22T00:37:38;23.20;99.90
8957;DHT22;4513;50.054;8.230;2023-06-22T00:40:08;23.10;99.90
8957;DHT22;4513;50.054;8.230;2023-06-22T00:42:36;22.90;99.90
8957;DHT22;4513;50.054;8.230;2023-06-22T00:45:04;22.90;99.90
8957;DHT22;4513;50.054;8.230;2023-06-22T00:47:31;22.80;99.90
8957;DHT22;4513;50.054;8.230;2023-06-22T00:49:59;22.80;99.90
8957;DHT22;4513;50.054;8.230;2023-06-22T00:52:27;22.70;99.90
8957;DHT22;4513;50.054;8.230;2023-06-22T00:54:56;22.60;99.90
8957;DHT22;4513;50.054;8.230;2023-06-22T00:57:24;22.30;99.90
8957;DHT22;4513;50.054;8.230;2023-06-22T00:59:54;22.30;99.90
8957;DHT22;4513;50.054;8.230;2023-06-22T01:02:21;22.20;99.90
8957;DHT22;4513;50.054;8.230;2023-06-22T01:04:48;22.10;99.90
8957;DHT22;4513;50.054;8.230;2023-06-22T01:07:26;22.00;99.90
8957;DHT22;4513;50.054;8.230;2023-06-22T01:09:59;22.00;99.90
8957;DHT22;4513;50.054;8.230;2023-06-22T01:12:31;21.80;99.90
8957;DHT22;4513;50.054;8.230;2023-06-22T01:15:04;21.40;99.90
8957;DHT22;4513;50.054;8.230;2023-06-22T01:17:33;21.30;99.90
8957;DHT22;4513;50.054;8.230;2023-06-22T01:20:02;21.40;99.90
8957;DHT22;4513;50.054;8.230;2023-06-22T01:22:39;21.40;99.90
8957;DHT22;4513;50.054;8.230;2023-06-22T01:25:12;21.30;99.90
8957;DHT22;4513;50.054;8.230;2023-06-22T01:27:48;21.20;99.90
8957;DHT22;4513;50.054;8.230;2023-06-22T01:30:20;21.10;99.90
8957;DHT22;4513;50.054;8.230;2023-06-22T01:32:47;21.10;99.90
8957;DHT22;4513;50.054;8.230;2023-06-22T01:35:15;21.20;99.90
8957;DHT22;4513;50.054;8.230;2023-06-22T01:37:43;21.20;99.90
8957;DHT22;4513;50.054;8.230;2023-06-22T01:40:11;21.20;99.90
8957;DHT22;4513;50.054;8.230;2023-06-22T01:42:38;21.20;99.90
8957;DHT22;4513;50.054;8.230;2023-06-22T01:45:07;21.20;99.90
8957;DHT22;4513;50.054;8.230;2023-06-22T01:47:35;21.10;99.90
8957;DHT22;4513;50.054;8.230;2023-06-22T01:50:03;21.10;99.90
8957;DHT22;4513;50.054;8.230;2023-06-22T01:52:30;20.90;99.90
8957;DHT22;4513;50.054;8.230;2023-06-22T01:54:59;20.80;99.90
8957;DHT22;4513;50.054;8.230;2023-06-22T01:57:27;20.90;99.90
8957;DHT22;4513;50.054;8.230;2023-06-22T01:59:59;21.00;99.90
8957;DHT22;4513;50.054;8.230;2023-06-22T02:02:31;21.00;99.90
8957;DHT22;4513;50.054;8.230;2023-06-22T02:05:03;21.10;99.90
8957;DHT22;4513;50.054;8.230;2023-06-22T02:07:37;21.10;99.90
8957;DHT22;4513;50.054;8.230;2023-06-22T02:10:07;21.10;99.90
8957;DHT22;4513;50.054;8.230;2023-06-22T02:12:35;21.10;99.90
8957;DHT22;4513;50.054;8.230;2023-06-22T02:15:03;21.10;99.90
8957;DHT22;4513;50.054;8.230;2023-06-22T02:17:30;21.00;99.90
8957;DHT22;4513;50.054;8.230;2023-06-22T02:20:01;21.10;99.90
8957;DHT22;4513;50.054;8.230;2023-06-22T02:22:30;21.20;99.90
8957;DHT22;4513;50.054;8.230;2023-06-22T02:24:56;21.30;99.90
8957;DHT22;4513;50.054;8.230;2023-06-22T02:27:24;21.20;99.90
8957;DHT22;4513;50.054;8.230;2023-06-22T02:29:51;21.20;99.90
8957;DHT22;4513;50.054;8.230;2023-06-22T02:32:17;21.20;99.90
8957;DHT22;4513;50.054;8.230;2023-06-22T02:34:44;21.20;99.90
8957;DHT22;4513;50.054;8.230;2023-06-22T02:37:14;21.20;99.90
8957;DHT22;4513;50.054;8.230;2023-06-22T02:39:41;21.20;99.90
8957;DHT22;4513;50.054;8.230;2023-06-22T02:42:08;21.30;99.90
8957;DHT22;4513;50.054;8.230;2023-06-22T02:44:36;21.10;99.90
8957;DHT22;4513;50.054;8.230;2023-06-22T02:47:03;21.20;99.90
8957;DHT22;4513;50.054;8.230;2023-06-22T02:49:30;21.10;99.90
8957;DHT22;4513;50.054;8.230;2023-06-22T02:51:57;21.20;99.90
8957;DHT22;4513;50.054;8.230;2023-06-22T02:54:25;21.00;99.90
8957;DHT22;4513;50.054;8.230;2023-06-22T02:56:52;21.00;99.90
8957;DHT22;4513;50.054;8.230;2023-06-22T02:59:19;21.00;99.90
8957;DHT22;4513;50.054;8.230;2023-06-22T03:01:49;21.10;99.90
8957;DHT22;4513;50.054;8.230;2023-06-22T03:04:16;21.10;99.90
8957;DHT22;4513;50.054;8.230;2023-06-22T03:06:42;21.10;99.90
8957;DHT22;4513;50.054;8.230;2023-06-22T03:09:09;21.10;99.90
8957;DHT22;4513;50.054;8.230;2023-06-22T03:11:37;21.10;99.90
8957;DHT22;4513;50.054;8.230;2023-06-22T03:14:04;21.20;99.90
8957;DHT22;4513;50.054;8.230;2023-06-22T03:16:31;21.10;99.90
8957;DHT22;4513;50.054;8.230;2023-06-22T03:18:58;21.10;99.90
8957;DHT22;4513;50.054;8.230;2023-06-22T03:21:28;21.00;99.90
8957;DHT22;4513;50.054;8.230;2023-06-22T03:23:55;21.10;99.90
8957;DHT22;4513;50.054;8.230;2023-06-22T03:26:22;21.10;99.90
8957;DHT22;4513;50.054;8.230;2023-06-22T03:28:53;21.00;99.90
8957;DHT22;4513;50.054;8.230;2023-06-22T03:31:20;21.00;99.90
8957;DHT22;4513;50.054;8.230;2023-06-22T03:33:47;21.00;99.90
8957;DHT22;4513;50.054;8.230;2023-06-22T03:36:14;20.90;99.90
8957;DHT22;4513;50.054;8.230;2023-06-22T03:38:44;21.00;99.90
8957;DHT22;4513;50.054;8.230;2023-06-22T03:41:11;21.10;99.90
8957;DHT22;4513;50.054;8.230;2023-06-22T03:43:38;21.20;99.90
8957;DHT22;4513;50.054;8.230;2023-06-22T03:46:06;21.10;99.90
8957;DHT22;4513;50.054;8.230;2023-06-22T03:48:33;21.10;99.90
8957;DHT22;4513;50.054;8.230;2023-06-22T03:51:00;21.00;99.90
8957;DHT22;4513;50.054;8.230;2023-06-22T03:53:28;21.00;99.90
8957;DHT22;4513;50.054;8.230;2023-06-22T03:55:55;21.10;99.90
8957;DHT22;4513;50.054;8.230;2023-06-22T03:58:22;21.10;99.90
8957;DHT22;4513;50.054;8.230;2023-06-22T04:00:50;21.10;99.90
8957;DHT22;4513;50.054;8.230;2023-06-22T04:03:18;21.20;99.90
8957;DHT22;4513;50.054;8.230;2023-06-22T04:05:46;21.20;99.90
8957;DHT22;4513;50.054;8.230;2023-06-22T04:08:14;21.30;99.90
8957;DHT22;4513;50.054;8.230;2023-06-22T04:10:40;21.20;99.90
8957;DHT22;4513;50.054;8.230;2023-06-22T04:13:08;21.20;99.90
8957;DHT22;4513;50.054;8.230;2023-06-22T04:15:34;21.20;99.90
8957;DHT22;4513;50.054;8.230;2023-06-22T04:18:01;21.10;99.90
8957;DHT22;4513;50.054;8.230;2023-06-22T04:20:31;21.10;99.90
8957;DHT22;4513;50.054;8.230;2023-06-22T04:22:58;21.10;99.90
8957;DHT22;4513;50.054;8.230;2023-06-22T04:25:24;21.10;99.90
8957;DHT22;4513;50.054;8.230;2023-06-22T04:27:51;21.10;99.90
8957;DHT22;4513;50.054;8.230;2023-06-22T04:30:18;21.10;99.90
8957;DHT22;4513;50.054;8.230;2023-06-22T04:32:45;21.20;99.90
8957;DHT22;4513;50.054;8.230;2023-06-22T04:35:22;21.20;99.90
8957;DHT22;4513;50.054;8.230;2023-06-22T04:37:50;21.30;99.90
8957;DHT22;4513;50.054;8.230;2023-06-22T04:40:21;21.40;99.90
8957;DHT22;4513;50.054;8.230;2023-06-22T04:42:48;21.40;99.90
8957;DHT22;4513;50.054;8.230;2023-06-22T04:45:18;21.40;99.90
8957;DHT22;4513;50.054;8.230;2023-06-22T04:47:45;21.40;99.90
8957;DHT22;4513;50.054;8.230;2023-06-22T04:50:12;21.30;99.90
8957;DHT22;4513;50.054;8.230;2023-06-22T04:52:39;21.40;99.90
8957;DHT22;4513;50.054;8.230;2023-06-22T04:55:09;21.30;99.90
8957;DHT22;4513;50.054;8.230;2023-06-22T04:57:35;21.20;99.90
8957;DHT22;4513;50.054;8.230;2023-06-22T05:00:05;21.30;99.90
8957;DHT22;4513;50.054;8.230;2023-06-22T05:02:37;21.30;99.90
8957;DHT22;4513;50.054;8.230;2023-06-22T05:05:05;21.30;99.90
8957;DHT22;4513;50.054;8.230;2023-06-22T05:07:33;21.30;99.90
8957;DHT22;4513;50.054;8.230;2023-06-22T05:10:00;21.50;99.90
8957;DHT22;4513;50.054;8.230;2023-06-22T05:12:29;21.40;99.90
8957;DHT22;4513;50.054;8.230;2023-06-22T05:14:56;21.40;99.90
8957;DHT22;4513;50.054;8.230;2023-06-22T05:17:23;21.40;99.90
8957;DHT22;4513;50.054;8.230;2023-06-22T05:19:50;21.50;99.90
8957;DHT22;4513;50.054;8.230;2023-06-22T05:22:18;21.50;99.90
8957;DHT22;4513;50.054;8.230;2023-06-22T05:24:45;21.60;99.90
8957;DHT22;4513;50.054;8.230;2023-06-22T05:27:11;21.70;99.90
8957;DHT22;4513;50.054;8.230;2023-06-22T05:29:40;21.70;99.90
8957;DHT22;4513;50.054;8.230;2023-06-22T05:32:08;21.70;99.90
8957;DHT22;4513;50.054;8.230;2023-06-22T05:34:35;21.70;99.90
8957;DHT22;4513;50.054;8.230;2023-06-22T05:37:02;21.80;99.90
8957;DHT22;4513;50.054;8.230;2023-06-22T05:39:29;22.00;99.90
8957;DHT22;4513;50.054;8.230;2023-06-22T05:41:56;22.00;99.90
8957;DHT22;4513;50.054;8.230;2023-06-22T05:44:23;22.10;99.90
8957;DHT22;4513;50.054;8.230;2023-06-22T05:46:51;22.20;99.90
8957;DHT22;4513;50.054;8.230;2023-06-22T05:49:18;22.30;99.90
8957;DHT22;4513;50.054;8.230;2023-06-22T05:51:44;22.40;99.90
8957;DHT22;4513;50.054;8.230;2023-06-22T05:54:11;22.50;99.90
8957;DHT22;4513;50.054;8.230;2023-06-22T05:56:39;22.70;99.90
8957;DHT22;4513;50.054;8.230;2023-06-22T05:59:05;22.80;99.90
8957;DHT22;4513;50.054;8.230;2023-06-22T06:01:32;23.00;99.90
8957;DHT22;4513;50.054;8.230;2023-06-22T06:04:02;23.00;99.90
8957;DHT22;4513;50.054;8.230;2023-06-22T06:06:29;23.10;99.90
8957;DHT22;4513;50.054;8.230;2023-06-22T06:08:56;23.20;99.90
8957;DHT22;4513;50.054;8.230;2023-06-22T06:11:24;23.30;99.90
8957;DHT22;4513;50.054;8.230;2023-06-22T06:13:51;23.30;99.90
8957;DHT22;4513;50.054;8.230;2023-06-22T06:16:18;23.30;99.90
8957;DHT22;4513;50.054;8.230;2023-06-22T06:18:45;23.30;99.90
8957;DHT22;4513;50.054;8.230;2023-06-22T06:21:13;23.40;99.90
8957;DHT22;4513;50.054;8.230;2023-06-22T06:23:39;23.60;99.90
8957;DHT22;4513;50.054;8.230;2023-06-22T06:26:07;23.70;99.90
8957;DHT22;4513;50.054;8.230;2023-06-22T06:28:34;23.80;99.90
8957;DHT22;4513;50.054;8.230;2023-06-22T06:31:01;24.00;99.90
8957;DHT22;4513;50.054;8.230;2023-06-22T06:33:28;24.10;99.90
8957;DHT22;4513;50.054;8.230;2023-06-22T06:35:55;24.00;99.90
8957;DHT22;4513;50.054;8.230;2023-06-22T06:38:23;24.00;99.90
8957;DHT22;4513;50.054;8.230;2023-06-22T06:40:50;24.10;99.90
8957;DHT22;4513;50.054;8.230;2023-06-22T06:43:16;24.20;99.90
8957;DHT22;4513;50.054;8.230;2023-06-22T06:45:43;24.30;99.90
8957;DHT22;4513;50.054;8.230;2023-06-22T06:48:11;24.40;99.90
8957;DHT22;4513;50.054;8.230;2023-06-22T06:50:37;24.50;99.90
8957;DHT22;4513;50.054;8.230;2023-06-22T06:53:04;24.50;99.90
8957;DHT22;4513;50.054;8.230;2023-06-22T06:55:33;24.50;99.90
8957;DHT22;4513;50.054;8.230;2023-06-22T06:58:00;24.80;99.90
8957;DHT22;4513;50.054;8.230;2023-06-22T07:00:27;24.80;99.90
8957;DHT22;4513;50.054;8.230;2023-06-22T07:02:54;24.80;99.90
8957;DHT22;4513;50.054;8.230;2023-06-22T07:05:21;24.80;99.90
8957;DHT22;4513;50.054;8.230;2023-06-22T07:07:48;24.80;99.90
8957;DHT22;4513;50.054;8.230;2023-06-22T07:10:15;24.90;99.90
8957;DHT22;4513;50.054;8.230;2023-06-22T07:12:43;25.00;99.90
8957;DHT22;4513;50.054;8.230;2023-06-22T07:15:10;25.10;99.90
8957;DHT22;4513;50.054;8.230;2023-06-22T07:17:38;25.00;99.90
8957;DHT22;4513;50.054;8.230;2023-06-22T07:20:07;25.10;99.90
8957;DHT22;4513;50.054;8.230;2023-06-22T07:22:37;25.20;99.90
8957;DHT22;4513;50.054;8.230;2023-06-22T07:25:05;25.30;99.90
8957;DHT22;4513;50.054;8.230;2023-06-22T07:27:35;25.50;99.90
8957;DHT22;4513;50.054;8.230;2023-06-22T07:30:08;25.50;99.90
8957;DHT22;4513;50.054;8.230;2023-06-22T07:32:35;25.60;99.90
8957;DHT22;4513;50.054;8.230;2023-06-22T07:35:02;25.70;99.90
8957;DHT22;4513;50.054;8.230;2023-06-22T07:37:30;25.90;99.90
8957;DHT22;4513;50.054;8.230;2023-06-22T07:39:58;25.90;99.90
8957;DHT22;4513;50.054;8.230;2023-06-22T07:42:25;25.80;99.90
8957;DHT22;4513;50.054;8.230;2023-06-22T07:44:53;25.70;99.90
8957;DHT22;4513;50.054;8.230;2023-06-22T07:47:21;25.80;99.90
8957;DHT22;4513;50.054;8.230;2023-06-22T07:49:51;25.90;99.90
8957;DHT22;4513;50.054;8.230;2023-06-22T07:52:20;26.00;99.90
8957;DHT22;4513;50.054;8.230;2023-06-22T07:54:47;26.00;99.90
8957;DHT22;4513;50.054;8.230;2023-06-22T07:57:13;26.10;99.90
8957;DHT22;4513;50.054;8.230;2023-06-22T07:59:40;26.30;99.90
8957;DHT22;4513;50.054;8.230;2023-06-22T08:02:07;26.10;99.90
8957;DHT22;4513;50.054;8.230;2023-06-22T08:04:36;26.30;99.90
8957;DHT22;4513;50.054;8.230;2023-06-22T08:07:03;26.50;99.90
8957;DHT22;4513;50.054;8.230;2023-06-22T08:09:31;26.50;99.90
8957;DHT22;4513;50.054;8.230;2023-06-22T08:11:58;26.20;99.90
8957;DHT22;4513;50.054;8.230;2023-06-22T08:14:25;26.50;99.90
8957;DHT22;4513;50.054;8.230;2023-06-22T08:16:52;26.60;99.90
8957;DHT22;4513;50.054;8.230;2023-06-22T08:19:19;26.70;99.90
8957;DHT22;4513;50.054;8.230;2023-06-22T08:21:47;26.60;99.90
8957;DHT22;4513;50.054;8.230;2023-06-22T08:24:14;26.60;99.90
8957;DHT22;4513;50.054;8.230;2023-06-22T08:26:41;26.50;99.90
8957;DHT22;4513;50.054;8.230;2023-06-22T08:29:07;26.70;99.90
8957;DHT22;4513;50.054;8.230;2023-06-22T08:31:34;26.60;99.90
8957;DHT22;4513;50.054;8.230;2023-06-22T08:34:01;26.90;99.90
8957;DHT22;4513;50.054;8.230;2023-06-22T08:36:28;26.90;99.90
8957;DHT22;4513;50.054;8.230;2023-06-22T08:38:57;26.90;99.90
8957;DHT22;4513;50.054;8.230;2023-06-22T08:41:28;26.70;99.90
8957;DHT22;4513;50.054;8.230;2023-06-22T08:43:55;26.80;99.90
8957;DHT22;4513;50.054;8.230;2023-06-22T08:46:22;26.60;99.90
8957;DHT22;4513;50.054;8.230;2023-06-22T08:48:55;26.60;99.90
8957;DHT22;4513;50.054;8.230;2023-06-22T08:51:23;26.90;99.90
8957;DHT22;4513;50.054;8.230;2023-06-22T08:53:50;26.90;99.90
8957;DHT22;4513;50.054;8.230;2023-06-22T08:56:18;27.10;99.90
8957;DHT22;4513;50.054;8.230;2023-06-22T08:58:45;27.40;99.90
8957;DHT22;4513;50.054;8.230;2023-06-22T09:01:11;27.50;99.90
8957;DHT22;4513;50.054;8.230;2023-06-22T09:03:40;28.10;99.50
8957;DHT22;4513;50.054;8.230;2023-06-22T09:06:07;28.10;98.80
8957;DHT22;4513;50.054;8.230;2023-06-22T09:08:34;27.60;99.30
8957;DHT22;4513;50.054;8.230;2023-06-22T09:11:01;27.10;99.90
8957;DHT22;4513;50.054;8.230;2023-06-22T09:13:31;27.50;99.90
8957;DHT22;4513;50.054;8.230;2023-06-22T09:15:58;27.80;99.80
8957;DHT22;4513;50.054;8.230;2023-06-22T09:18:25;28.10;99.10
8957;DHT22;4513;50.054;8.230;2023-06-22T09:20:52;27.90;99.60
8957;DHT22;4513;50.054;8.230;2023-06-22T09:23:18;28.50;98.30
8957;DHT22;4513;50.054;8.230;2023-06-22T09:25:45;28.80;97.80
8957;DHT22;4513;50.054;8.230;2023-06-22T09:28:13;28.90;97.80
8957;DHT22;4513;50.054;8.230;2023-06-22T09:30:42;28.90;97.50
8957;DHT22;4513;50.054;8.230;2023-06-22T09:33:09;28.70;97.60
8957;DHT22;4513;50.054;8.230;2023-06-22T09:35:36;28.80;97.40
8957;DHT22;4513;50.054;8.230;2023-06-22T09:38:03;28.70;97.90
8957;DHT22;4513;50.054;8.230;2023-06-22T09:40:30;28.90;97.60
8957;DHT22;4513;50.054;8.230;2023-06-22T09:42:58;29.10;97.40
8957;DHT22;4513;50.054;8.230;2023-06-22T09:45:25;29.40;97.40
8957;DHT22;4513;50.054;8.230;2023-06-22T09:47:53;28.60;97.40
8957;DHT22;4513;50.054;8.230;2023-06-22T09:50:19;28.30;97.60
8957;DHT22;4513;50.054;8.230;2023-06-22T09:52:46;28.30;97.60
8957;DHT22;4513;50.054;8.230;2023-06-22T09:55:17;28.50;97.50
8957;DHT22;4513;50.054;8.230;2023-06-22T09:57:44;28.90;97.30
8957;DHT22;4513;50.054;8.230;2023-06-22T10:00:12;28.60;97.40
8957;DHT22;4513;50.054;8.230;2023-06-22T10:02:39;28.80;97.40
8957;DHT22;4513;50.054;8.230;2023-06-22T10:05:08;28.90;97.30
8957;DHT22;4513;50.054;8.230;2023-06-22T10:07:35;28.70;97.20
8957;DHT22;4513;50.054;8.230;2023-06-22T10:10:06;28.60;97.40
8957;DHT22;4513;50.054;8.230;2023-06-22T10:12:33;28.60;97.80
8957;DHT22;4513;50.054;8.230;2023-06-22T10:15:00;28.70;98.00
8957;DHT22;4513;50.054;8.230;2023-06-22T10:17:26;28.60;97.40
8957;DHT22;4513;50.054;8.230;2023-06-22T10:19:53;28.40;97.40
8957;DHT22;4513;50.054;8.230;2023-06-22T10:22:21;28.80;96.70
8957;DHT22;4513;50.054;8.230;2023-06-22T10:24:48;28.70;97.00
8957;DHT22;4513;50.054;8.230;2023-06-22T10:27:15;28.20;97.30
8957;DHT22;4513;50.054;8.230;2023-06-22T10:29:42;28.60;96.20
8957;DHT22;4513;50.054;8.230;2023-06-22T10:32:09;28.90;96.20
8957;DHT22;4513;50.054;8.230;2023-06-22T10:34:35;29.30;96.30
8957;DHT22;4513;50.054;8.230;2023-06-22T10:37:02;29.50;95.30
8957;DHT22;4513;50.054;8.230;2023-06-22T10:39:30;30.00;95.10
8957;DHT22;4513;50.054;8.230;2023-06-22T10:41:57;30.20;94.30
8957;DHT22;4513;50.054;8.230;2023-06-22T10:44:24;30.30;94.70
8957;DHT22;4513;50.054;8.230;2023-06-22T10:46:50;30.50;94.70
8957;DHT22;4513;50.054;8.230;2023-06-22T10:49:17;30.70;94.60
8957;DHT22;4513;50.054;8.230;2023-06-22T10:51:44;30.40;94.80
8957;DHT22;4513;50.054;8.230;2023-06-22T10:54:14;29.90;95.10
8957;DHT22;4513;50.054;8.230;2023-06-22T10:56:45;29.80;94.90
8957;DHT22;4513;50.054;8.230;2023-06-22T10:59:11;29.80;94.50
8957;DHT22;4513;50.054;8.230;2023-06-22T11:01:38;29.80;94.90
8957;DHT22;4513;50.054;8.230;2023-06-22T11:04:05;30.00;93.90
8957;DHT22;4513;50.054;8.230;2023-06-22T11:06:32;30.10;93.80
8957;DHT22;4513;50.054;8.230;2023-06-22T11:08:58;30.00;93.40
8957;DHT22;4513;50.054;8.230;2023-06-22T11:11:28;30.40;93.60
8957;DHT22;4513;50.054;8.230;2023-06-22T11:13:58;30.60;92.70
8957;DHT22;4513;50.054;8.230;2023-06-22T11:16:24;30.80;92.40
8957;DHT22;4513;50.054;8.230;2023-06-22T11:18:51;31.00;92.60
8957;DHT22;4513;50.054;8.230;2023-06-22T11:21:18;31.20;91.90
8957;DHT22;4513;50.054;8.230;2023-06-22T11:23:45;31.20;91.40
8957;DHT22;4513;50.054;8.230;2023-06-22T11:26:12;30.90;91.00
8957;DHT22;4513;50.054;8.230;2023-06-22T11:28:38;30.70;91.50
8957;DHT22;4513;50.054;8.230;2023-06-22T11:31:07;31.10;91.70
8957;DHT22;4513;50.054;8.230;2023-06-22T11:33:34;31.40;90.30
8957;DHT22;4513;50.054;8.230;2023-06-22T11:36:02;31.70;90.90
8957;DHT22;4513;50.054;8.230;2023-06-22T11:38:28;31.70;89.20
8957;DHT22;4513;50.054;8.230;2023-06-22T11:40:57;31.90;89.90
8957;DHT22;4513;50.054;8.230;2023-06-22T11:43:24;31.50;89.70
8957;DHT22;4513;50.054;8.230;2023-06-22T11:45:51;31.70;89.20
8957;DHT22;4513;50.054;8.230;2023-06-22T11:48:19;31.70;89.30
8957;DHT22;4513;50.054;8.230;2023-06-22T11:50:46;31.80;89.40
8957;DHT22;4513;50.054;8.230;2023-06-22T11:53:13;31.50;90.10
8957;DHT22;4513;50.054;8.230;2023-06-22T11:55:42;31.70;90.00
8957;DHT22;4513;50.054;8.230;2023-06-22T11:58:09;31.90;91.00
8957;DHT22;4513;50.054;8.230;2023-06-22T12:00:37;31.80;89.00
8957;DHT22;4513;50.054;8.230;2023-06-22T12:03:04;31.70;89.70
8957;DHT22;4513;50.054;8.230;2023-06-22T12:05:32;31.40;89.50
8957;DHT22;4513;50.054;8.230;2023-06-22T12:07:59;31.70;89.70
8957;DHT22;4513;50.054;8.230;2023-06-22T12:10:26;31.70;89.20
8957;DHT22;4513;50.054;8.230;2023-06-22T12:12:54;32.20;90.60
8957;DHT22;4513;50.054;8.230;2023-06-22T12:15:21;32.20;89.40
8957;DHT22;4513;50.054;8.230;2023-06-22T12:17:48;32.10;89.70
8957;DHT22;4513;50.054;8.230;2023-06-22T12:20:15;31.70;89.40
8957;DHT22;4513;50.054;8.230;2023-06-22T12:22:43;31.60;88.70
8957;DHT22;4513;50.054;8.230;2023-06-22T12:25:10;31.80;90.60
8957;DHT22;4513;50.054;8.230;2023-06-22T12:27:37;31.60;89.30
8957;DHT22;4513;50.054;8.230;2023-06-22T12:30:07;31.70;90.30
8957;DHT22;4513;50.054;8.230;2023-06-22T12:32:34;31.90;89.20
8957;DHT22;4513;50.054;8.230;2023-06-22T12:35:01;31.90;88.90
8957;DHT22;4513;50.054;8.230;2023-06-22T12:37:28;31.90;89.40
8957;DHT22;4513;50.054;8.230;2023-06-22T12:39:58;31.90;90.00
8957;DHT22;4513;50.054;8.230;2023-06-22T12:42:25;32.10;89.60
8957;DHT22;4513;50.054;8.230;2023-06-22T12:44:53;32.20;90.00
8957;DHT22;4513;50.054;8.230;2023-06-22T12:47:20;32.50;89.80
8957;DHT22;4513;50.054;8.230;2023-06-22T12:49:47;32.80;89.40
8957;DHT22;4513;50.054;8.230;2023-06-22T12:52:13;33.00;88.60
8957;DHT22;4513;50.054;8.230;2023-06-22T12:54:40;32.60;85.80
8957;DHT22;4513;50.054;8.230;2023-06-22T12:57:08;32.10;87.40
8957;DHT22;4513;50.054;8.230;2023-06-22T12:59:35;32.20;88.80
8957;DHT22;4513;50.054;8.230;2023-06-22T13:02:02;32.20;87.80
8957;DHT22;4513;50.054;8.230;2023-06-22T13:04:29;32.30;85.60
8957;DHT22;4513;50.054;8.230;2023-06-22T13:06:56;32.40;84.70
8957;DHT22;4513;50.054;8.230;2023-06-22T13:09:23;32.30;87.50
8957;DHT22;4513;50.054;8.230;2023-06-22T13:11:50;32.60;87.00
8957;DHT22;4513;50.054;8.230;2023-06-22T13:14:19;32.50;87.00
8957;DHT22;4513;50.054;8.230;2023-06-22T13:16:45;32.70;87.40
8957;DHT22;4513;50.054;8.230;2023-06-22T13:19:12;32.50;87.00
8957;DHT22;4513;50.054;8.230;2023-06-22T13:21:40;32.40;86.50
8957;DHT22;4513;50.054;8.230;2023-06-22T13:24:07;32.20;87.60
8957;DHT22;4513;50.054;8.230;2023-06-22T13:26:34;32.30;88.10
8957;DHT22;4513;50.054;8.230;2023-06-22T13:29:01;32.70;87.90
8957;DHT22;4513;50.054;8.230;2023-06-22T13:31:29;32.80;87.10
8957;DHT22;4513;50.054;8.230;2023-06-22T13:33:55;32.80;88.90
8957;DHT22;4513;50.054;8.230;2023-06-22T13:36:22;32.70;86.60
8957;DHT22;4513;50.054;8.230;2023-06-22T13:38:49;32.60;87.20
8957;DHT22;4513;50.054;8.230;2023-06-22T13:41:16;32.40;89.60
8957;DHT22;4513;50.054;8.230;2023-06-22T13:43:43;32.10;89.70
8957;DHT22;4513;50.054;8.230;2023-06-22T13:46:10;31.90;90.20
8957;DHT22;4513;50.054;8.230;2023-06-22T13:48:38;31.70;90.20
8957;DHT22;4513;50.054;8.230;2023-06-22T13:51:05;31.50;89.60
8957;DHT22;4513;50.054;8.230;2023-06-22T13:53:32;31.60;89.60
8957;DHT22;4513;50.054;8.230;2023-06-22T13:55:58;31.40;89.70
8957;DHT22;4513;50.054;8.230;2023-06-22T13:58:25;31.40;90.00
8957;DHT22;4513;50.054;8.230;2023-06-22T14:00:52;31.70;90.10
8957;DHT22;4513;50.054;8.230;2023-06-22T14:03:19;32.10;90.30
8957;DHT22;4513;50.054;8.230;2023-06-22T14:05:47;31.90;88.40
8957;DHT22;4513;50.054;8.230;2023-06-22T14:08:14;32.10;89.30
8957;DHT22;4513;50.054;8.230;2023-06-22T14:10:40;32.20;88.90
8957;DHT22;4513;50.054;8.230;2023-06-22T14:13:07;31.90;86.80
8957;DHT22;4513;50.054;8.230;2023-06-22T14:15:34;31.80;89.50
8957;DHT22;4513;50.054;8.230;2023-06-22T14:18:01;31.70;86.20
8957;DHT22;4513;50.054;8.230;2023-06-22T14:20:28;31.50;85.20
8957;DHT22;4513;50.054;8.230;2023-06-22T14:22:56;31.40;84.60
8957;DHT22;4513;50.054;8.230;2023-06-22T14:25:22;31.30;84.70
8957;DHT22;4513;50.054;8.230;2023-06-22T14:27:49;31.20;85.30
8957;DHT22;4513;50.054;8.230;2023-06-22T14:30:16;31.20;84.60
8957;DHT22;4513;50.054;8.230;2023-06-22T14:32:46;31.10;84.50
8957;DHT22;4513;50.054;8.230;2023-06-22T14:35:13;31.00;84.90
8957;DHT22;4513;50.054;8.230;2023-06-22T14:37:46;31.00;85.70
8957;DHT22;4513;50.054;8.230;2023-06-22T14:40:15;30.90;86.00
8957;DHT22;4513;50.054;8.230;2023-06-22T14:42:42;30.80;86.20
8957;DHT22;4513;50.054;8.230;2023-06-22T14:45:09;30.90;87.40
8957;DHT22;4513;50.054;8.230;2023-06-22T14:47:36;30.90;86.70
8957;DHT22;4513;50.054;8.230;2023-06-22T14:50:06;30.80;86.80
8957;DHT22;4513;50.054;8.230;2023-06-22T14:52:33;30.80;87.00
8957;DHT22;4513;50.054;8.230;2023-06-22T14:55:00;30.80;87.60
8957;DHT22;4513;50.054;8.230;2023-06-22T14:57:28;30.80;87.70
8957;DHT22;4513;50.054;8.230;2023-06-22T14:59:55;30.90;87.80
8957;DHT22;4513;50.054;8.230;2023-06-22T15:02:22;30.90;88.00
8957;DHT22;4513;50.054;8.230;2023-06-22T15:04:49;30.80;88.40
8957;DHT22;4513;50.054;8.230;2023-06-22T15:07:17;30.70;88.50
8957;DHT22;4513;50.054;8.230;2023-06-22T15:09:44;30.70;87.10
8957;DHT22;4513;50.054;8.230;2023-06-22T15:12:14;30.60;87.20
8957;DHT22;4513;50.054;8.230;2023-06-22T15:14:43;30.60;85.90
8957;DHT22;4513;50.054;8.230;2023-06-22T15:17:09;30.60;86.80
8957;DHT22;4513;50.054;8.230;2023-06-22T15:19:39;30.50;87.00
8957;DHT22;4513;50.054;8.230;2023-06-22T15:22:07;30.60;86.60
8957;DHT22;4513;50.054;8.230;2023-06-22T15:24:36;30.60;88.30
8957;DHT22;4513;50.054;8.230;2023-06-22T15:27:04;30.70;85.30
8957;DHT22;4513;50.054;8.230;2023-06-22T15:29:30;30.80;86.00
8957;DHT22;4513;50.054;8.230;2023-06-22T15:32:01;30.80;84.70
8957;DHT22;4513;50.054;8.230;2023-06-22T15:34:28;30.80;82.60
8957;DHT22;4513;50.054;8.230;2023-06-22T15:36:54;30.80;83.10
8957;DHT22;4513;50.054;8.230;2023-06-22T15:39:21;30.80;83.10
8957;DHT22;4513;50.054;8.230;2023-06-22T15:41:49;30.70;83.10
8957;DHT22;4513;50.054;8.230;2023-06-22T15:44:19;30.60;82.60
8957;DHT22;4513;50.054;8.230;2023-06-22T15:46:46;30.50;83.80
8957;DHT22;4513;50.054;8.230;2023-06-22T15:49:17;29.20;93.10
8957;DHT22;4513;50.054;8.230;2023-06-22T15:51:44;25.70;99.90
8957;DHT22;4513;50.054;8.230;2023-06-22T15:54:11;23.80;99.90
8957;DHT22;4513;50.054;8.230;2023-06-22T15:56:38;22.70;99.90
8957;DHT22;4513;50.054;8.230;2023-06-22T15:59:05;22.30;99.90
8957;DHT22;4513;50.054;8.230;2023-06-22T16:01:32;21.90;99.90
8957;DHT22;4513;50.054;8.230;2023-06-22T16:03:59;22.20;99.90